sensor_id;sensor_type;location;lat;lon;timestamp;pressure;altitude;pressure_sealevel;temperature;humidity
77572;BME280;67214;47.454;18.966;2023-09-18T00:00:26;100481.91;;;17.24;87.65
77572;BME280;67214;47.454;18.966;2023-09-18T00:02:54;100474.89;;;17.23;87.88
77572;BME280;67214;47.454;18.966;2023-09-18T00:05:21;100484.09;;;17.25;87.73
77572;BME280;67214;47.454;18.966;2023-09-18T00:07:49;100482.93;;;17.23;87.85
77572;BME280;67214;47.454;18.966;2023-09-18T00:10:16;100473.84;;;17.20;87.59
77572;BME280;67214;47.454;18.966;2023-09-18T00:12:44;100470.98;;;17.17;87.61
77572;BME280;67214;47.454;18.966;2023-09-18T00:15:11;100470.98;;;17.17;87.49
77572;BME280;67214;47.454;18.966;2023-09-18T00:17:38;100473.67;;;17.17;87.35
77572;BME280;67214;47.454;18.966;2023-09-18T00:20:07;100463.94;;;17.16;87.26
77572;BME280;67214;47.454;18.966;2023-09-18T00:22:35;100463.27;;;17.14;87.12
77572;BME280;67214;47.454;18.966;2023-09-18T00:25:02;100465.60;;;17.13;86.99
77572;BME280;67214;47.454;18.966;2023-09-18T00:27:30;100474.78;;;17.07;87.10
77572;BME280;67214;47.454;18.966;2023-09-18T00:29:59;100468.34;;;17.00;87.34
77572;BME280;67214;47.454;18.966;2023-09-18T00:32:27;100471.00;;;16.96;87.55
77572;BME280;67214;47.454;18.966;2023-09-18T00:34:55;100469.45;;;16.89;87.82
77572;BME280;67214;47.454;18.966;2023-09-18T00:37:22;100467.45;;;16.87;87.84
77572;BME280;67214;47.454;18.966;2023-09-18T00:39:50;100462.73;;;16.85;87.94
77572;BME280;67214;47.454;18.966;2023-09-18T00:42:18;100452.36;;;16.86;88.27
77572;BME280;67214;47.454;18.966;2023-09-18T00:44:45;100460.05;;;16.85;88.44
77572;BME280;67214;47.454;18.966;2023-09-18T00:47:14;100459.55;;;16.86;88.38
77572;BME280;67214;47.454;18.966;2023-09-18T00:49:44;100463.05;;;16.82;88.51
77572;BME280;67214;47.454;18.966;2023-09-18T00:52:12;100462.34;;;16.80;88.67
77572;BME280;67214;47.454;18.966;2023-09-18T00:54:40;100464.53;;;16.81;88.83
77572;BME280;67214;47.454;18.966;2023-09-18T00:57:10;100460.83;;;16.78;89.04
77572;BME280;67214;47.454;18.966;2023-09-18T00:59:38;100469.51;;;16.76;89.13
77572;BME280;67214;47.454;18.966;2023-09-18T01:02:06;100466.66;;;16.73;88.98
77572;BME280;67214;47.454;18.966;2023-09-18T01:04:35;100468.98;;;16.72;89.25
77572;BME280;67214;47.454;18.966;2023-09-18T01:07:02;100466.66;;;16.73;89.19
77572;BME280;67214;47.454;18.966;2023-09-18T01:09:34;100456.95;;;16.76;89.08
77572;BME280;67214;47.454;18.966;2023-09-18T01:12:50;100463.30;;;16.75;89.02
77572;BME280;67214;47.454;18.966;2023-09-18T01:14:36;100459.81;;;16.75;88.93
77572;BME280;67214;47.454;18.966;2023-09-18T01:17:03;100451.57;;;16.72;89.06
77572;BME280;67214;47.454;18.966;2023-09-18T01:22:07;100454.08;;;16.69;89.40
77572;BME280;67214;47.454;18.966;2023-09-18T01:24:37;100441.14;;;16.65;89.79
77572;BME280;67214;47.454;18.966;2023-09-18T01:27:07;100447.81;;;16.61;89.69
77572;BME280;67214;47.454;18.966;2023-09-18T01:29:34;100444.11;;;16.58;89.81
77572;BME280;67214;47.454;18.966;2023-09-18T01:32:01;100448.34;;;16.51;89.80
77572;BME280;67214;47.454;18.966;2023-09-18T01:34:37;100443.63;;;16.45;89.87
77572;BME280;67214;47.454;18.966;2023-09-18T01:37:00;100443.59;;;16.41;89.99
77572;BME280;67214;47.454;18.966;2023-09-18T01:39:29;100442.25;;;16.41;90.17
77572;BME280;67214;47.454;18.966;2023-09-18T01:42:00;100455.63;;;16.41;90.26
77572;BME280;67214;47.454;18.966;2023-09-18T01:44:29;100452.29;;;16.43;90.57
77572;BME280;67214;47.454;18.966;2023-09-18T01:47:02;100444.75;;;16.38;90.91
77572;BME280;67214;47.454;18.966;2023-09-18T01:49:34;100458.77;;;16.36;91.08
77572;BME280;67214;47.454;18.966;2023-09-18T01:52:04;100454.89;;;16.35;91.03
77572;BME280;67214;47.454;18.966;2023-09-18T01:54:32;100448.69;;;16.30;90.96
77572;BME280;67214;47.454;18.966;2023-09-18T01:57:01;100445.12;;;16.25;91.00
77572;BME280;67214;47.454;18.966;2023-09-18T01:59:29;100447.95;;;16.24;91.26
77572;BME280;67214;47.454;18.966;2023-09-18T02:01:57;100438.72;;;16.22;91.47
77572;BME280;67214;47.454;18.966;2023-09-18T02:04:24;100443.44;;;16.24;91.51
77572;BME280;67214;47.454;18.966;2023-09-18T02:06:53;100440.41;;;16.23;91.44
77572;BME280;67214;47.454;18.966;2023-09-18T02:09:20;100434.20;;;16.23;91.39
77572;BME280;67214;47.454;18.966;2023-09-18T02:11:48;100440.41;;;16.23;91.38
77572;BME280;67214;47.454;18.966;2023-09-18T02:14:15;100440.05;;;16.22;91.53
77572;BME280;67214;47.454;18.966;2023-09-18T02:16:43;100443.79;;;16.25;91.30
77572;BME280;67214;47.454;18.966;2023-09-18T02:19:12;100435.91;;;16.24;91.36
77572;BME280;67214;47.454;18.966;2023-09-18T02:21:41;100446.61;;;16.24;91.43
77572;BME280;67214;47.454;18.966;2023-09-18T02:24:08;100444.11;;;16.26;91.36
77572;BME280;67214;47.454;18.966;2023-09-18T02:26:36;100439.81;;;16.30;91.14
77572;BME280;67214;47.454;18.966;2023-09-18T02:29:06;100452.31;;;16.25;91.13
77572;BME280;67214;47.454;18.966;2023-09-18T02:31:34;100452.95;;;16.23;91.27
77572;BME280;67214;47.454;18.966;2023-09-18T02:34:01;100449.77;;;16.23;91.31
77572;BME280;67214;47.454;18.966;2023-09-18T02:36:29;100449.28;;;16.24;91.10
77572;BME280;67214;47.454;18.966;2023-09-18T02:38:56;100455.13;;;16.23;91.06
77572;BME280;67214;47.454;18.966;2023-09-18T02:41:23;100457.31;;;16.24;91.43
77572;BME280;67214;47.454;18.966;2023-09-18T02:43:51;100456.33;;;16.25;91.41
77572;BME280;67214;47.454;18.966;2023-09-18T02:46:18;100454.50;;;16.25;91.27
77572;BME280;67214;47.454;18.966;2023-09-18T02:48:46;100458.47;;;16.21;91.17
77572;BME280;67214;47.454;18.966;2023-09-18T02:51:13;100462.66;;;16.24;91.15
77572;BME280;67214;47.454;18.966;2023-09-18T02:53:41;100465.44;;;16.18;91.62
77572;BME280;67214;47.454;18.966;2023-09-18T02:56:08;100463.92;;;16.16;92.08
77572;BME280;67214;47.454;18.966;2023-09-18T02:58:36;100461.73;;;16.15;92.04
77572;BME280;67214;47.454;18.966;2023-09-18T03:01:03;100463.87;;;16.12;91.97
77572;BME280;67214;47.454;18.966;2023-09-18T03:03:31;100466.20;;;16.11;91.97
77572;BME280;67214;47.454;18.966;2023-09-18T03:06:03;100462.01;;;16.08;91.79
77572;BME280;67214;47.454;18.966;2023-09-18T03:08:31;100454.61;;;16.06;91.68
77572;BME280;67214;47.454;18.966;2023-09-18T03:10:59;100459.29;;;16.04;91.66
77572;BME280;67214;47.454;18.966;2023-09-18T03:13:28;100461.75;;;16.02;91.95
77572;BME280;67214;47.454;18.966;2023-09-18T03:15:55;100459.25;;;16.00;91.88
77572;BME280;67214;47.454;18.966;2023-09-18T03:18:23;100447.56;;;16.01;91.64
77572;BME280;67214;47.454;18.966;2023-09-18T03:20:50;100440.52;;;16.00;91.44
77572;BME280;67214;47.454;18.966;2023-09-18T03:23:18;100449.53;;;15.99;91.65
77572;BME280;67214;47.454;18.966;2023-09-18T03:25:45;100445.47;;;15.95;91.82
77572;BME280;67214;47.454;18.966;2023-09-18T03:28:13;100445.12;;;15.94;91.93
77572;BME280;67214;47.454;18.966;2023-09-18T03:30:41;100436.42;;;15.92;92.04
77572;BME280;67214;47.454;18.966;2023-09-18T03:33:08;100443.46;;;15.93;92.18
77572;BME280;67214;47.454;18.966;2023-09-18T03:35:52;100435.12;;;15.96;92.09
77572;BME280;67214;47.454;18.966;2023-09-18T03:38:15;100433.34;;;16.01;91.91
77572;BME280;67214;47.454;18.966;2023-09-18T03:40:43;100439.85;;;16.02;91.87
77572;BME280;67214;47.454;18.966;2023-09-18T03:43:11;100441.05;;;16.04;91.95
77572;BME280;67214;47.454;18.966;2023-09-18T03:45:41;100439.90;;;16.06;91.89
77572;BME280;67214;47.454;18.966;2023-09-18T03:48:09;100438.42;;;16.08;91.66
77572;BME280;67214;47.454;18.966;2023-09-18T03:50:37;100436.28;;;16.11;91.40
77572;BME280;67214;47.454;18.966;2023-09-18T03:53:05;100441.67;;;16.15;91.00
77572;BME280;67214;47.454;18.966;2023-09-18T03:55:33;100444.73;;;16.20;90.91
77572;BME280;67214;47.454;18.966;2023-09-18T03:58:00;100443.58;;;16.23;90.66
77572;BME280;67214;47.454;18.966;2023-09-18T04:00:28;100440.41;;;16.23;90.46
77572;BME280;67214;47.454;18.966;2023-09-18T04:02:55;100438.22;;;16.23;90.18
77572;BME280;67214;47.454;18.966;2023-09-18T04:05:23;100439.39;;;16.20;90.09
77572;BME280;67214;47.454;18.966;2023-09-18T04:07:50;100433.85;;;16.18;90.15
77572;BME280;67214;47.454;18.966;2023-09-18T04:10:18;100429.98;;;16.16;90.26
77572;BME280;67214;47.454;18.966;2023-09-18T04:12:47;100425.83;;;16.18;90.21
77572;BME280;67214;47.454;18.966;2023-09-18T04:15:16;100420.97;;;16.17;90.18
77572;BME280;67214;47.454;18.966;2023-09-18T04:17:45;100430.82;;;16.17;90.12
77572;BME280;67214;47.454;18.966;2023-09-18T04:20:12;100422.44;;;16.16;90.13
77572;BME280;67214;47.454;18.966;2023-09-18T04:22:45;100418.78;;;16.17;90.13
77572;BME280;67214;47.454;18.966;2023-09-18T04:25:14;100412.23;;;16.15;90.27
77572;BME280;67214;47.454;18.966;2023-09-18T04:27:42;100418.29;;;16.17;90.15
77572;BME280;67214;47.454;18.966;2023-09-18T04:30:10;100411.59;;;16.17;90.01
77572;BME280;67214;47.454;18.966;2023-09-18T04:32:38;100419.95;;;16.18;89.81
77572;BME280;67214;47.454;18.966;2023-09-18T04:35:06;100412.58;;;16.16;89.77
77572;BME280;67214;47.454;18.966;2023-09-18T04:37:36;100410.54;;;16.14;89.79
77572;BME280;67214;47.454;18.966;2023-09-18T04:40:05;100417.58;;;16.15;89.78
77572;BME280;67214;47.454;18.966;2023-09-18T04:42:38;100419.27;;;16.16;89.69
77572;BME280;67214;47.454;18.966;2023-09-18T04:45:07;100421.95;;;16.16;89.71
77572;BME280;67214;47.454;18.966;2023-09-18T04:47:34;100415.12;;;16.18;89.64
77572;BME280;67214;47.454;18.966;2023-09-18T04:50:02;100416.95;;;16.17;89.61
77572;BME280;67214;47.454;18.966;2023-09-18T04:52:31;100423.02;;;16.23;89.70
77572;BME280;67214;47.454;18.966;2023-09-18T04:54:58;100418.72;;;16.31;89.44
77572;BME280;67214;47.454;18.966;2023-09-18T04:57:26;100411.25;;;16.34;89.49
77572;BME280;67214;47.454;18.966;2023-09-18T04:59:53;100419.11;;;16.36;89.51
77572;BME280;67214;47.454;18.966;2023-09-18T05:02:21;100412.27;;;16.37;89.49
77572;BME280;67214;47.454;18.966;2023-09-18T05:04:51;100422.03;;;16.42;89.39
77572;BME280;67214;47.454;18.966;2023-09-18T05:07:18;100412.52;;;16.48;89.14
77572;BME280;67214;47.454;18.966;2023-09-18T05:09:47;100417.65;;;16.59;88.42
77572;BME280;67214;47.454;18.966;2023-09-18T05:12:14;100414.22;;;16.66;87.98
77572;BME280;67214;47.454;18.966;2023-09-18T05:14:42;100418.77;;;16.70;87.83
77572;BME280;67214;47.454;18.966;2023-09-18T05:17:15;100411.42;;;16.76;87.53
77572;BME280;67214;47.454;18.966;2023-09-18T05:19:43;100414.33;;;16.83;87.06
77572;BME280;67214;47.454;18.966;2023-09-18T05:22:11;100421.38;;;16.88;86.73
77572;BME280;67214;47.454;18.966;2023-09-18T05:24:39;100428.95;;;16.92;86.72
77572;BME280;67214;47.454;18.966;2023-09-18T05:27:07;100413.39;;;16.96;86.52
77572;BME280;67214;47.454;18.966;2023-09-18T05:29:35;100413.64;;;17.06;86.02
77572;BME280;67214;47.454;18.966;2023-09-18T05:32:04;100424.03;;;17.09;85.52
77572;BME280;67214;47.454;18.966;2023-09-18T05:34:31;100418.86;;;17.16;84.98
77572;BME280;67214;47.454;18.966;2023-09-18T05:36:59;100422.61;;;17.23;84.61
77572;BME280;67214;47.454;18.966;2023-09-18T05:39:26;100414.41;;;17.29;84.26
77572;BME280;67214;47.454;18.966;2023-09-18T05:41:54;100412.27;;;17.36;83.90
77572;BME280;67214;47.454;18.966;2023-09-18T05:44:21;100403.11;;;17.47;83.49
77572;BME280;67214;47.454;18.966;2023-09-18T05:46:49;100397.63;;;17.56;83.11
77572;BME280;67214;47.454;18.966;2023-09-18T05:49:16;100401.86;;;17.63;82.82
77572;BME280;67214;47.454;18.966;2023-09-18T05:51:44;100410.43;;;17.71;82.12
77572;BME280;67214;47.454;18.966;2023-09-18T05:54:13;100409.80;;;17.77;81.51
77572;BME280;67214;47.454;18.966;2023-09-18T05:56:40;100408.64;;;17.87;81.24
77572;BME280;67214;47.454;18.966;2023-09-18T05:59:08;100410.49;;;17.95;81.31
77572;BME280;67214;47.454;18.966;2023-09-18T06:01:35;100396.23;;;17.98;81.63
77572;BME280;67214;47.454;18.966;2023-09-18T06:04:04;100402.13;;;18.10;80.14
77572;BME280;67214;47.454;18.966;2023-09-18T06:06:31;100404.50;;;18.13;79.88
77572;BME280;67214;47.454;18.966;2023-09-18T06:08:59;100401.48;;;18.20;79.46
77572;BME280;67214;47.454;18.966;2023-09-18T06:11:27;100392.93;;;18.29;79.17
77572;BME280;67214;47.454;18.966;2023-09-18T06:13:54;100399.64;;;18.45;78.26
77572;BME280;67214;47.454;18.966;2023-09-18T06:16:22;100398.48;;;18.55;77.63
77572;BME280;67214;47.454;18.966;2023-09-18T06:18:49;100393.95;;;18.64;77.43
77572;BME280;67214;47.454;18.966;2023-09-18T06:21:16;100400.00;;;18.70;77.14
77572;BME280;67214;47.454;18.966;2023-09-18T06:23:44;100391.41;;;18.75;77.73
77572;BME280;67214;47.454;18.966;2023-09-18T06:26:11;100384.86;;;18.85;76.45
77572;BME280;67214;47.454;18.966;2023-09-18T06:28:40;100392.74;;;18.95;76.38
77572;BME280;67214;47.454;18.966;2023-09-18T06:31:07;100387.84;;;19.02;76.58
77572;BME280;67214;47.454;18.966;2023-09-18T06:33:35;100382.73;;;19.16;75.36
77572;BME280;67214;47.454;18.966;2023-09-18T06:36:02;100382.70;;;19.28;74.40
77572;BME280;67214;47.454;18.966;2023-09-18T06:38:30;100381.84;;;19.39;74.25
77572;BME280;67214;47.454;18.966;2023-09-18T06:40:57;100381.66;;;19.45;73.98
77572;BME280;67214;47.454;18.966;2023-09-18T06:43:25;100377.78;;;19.52;73.83
77572;BME280;67214;47.454;18.966;2023-09-18T06:45:52;100381.41;;;19.63;73.76
77572;BME280;67214;47.454;18.966;2023-09-18T06:48:20;100373.41;;;19.77;72.62
77572;BME280;67214;47.454;18.966;2023-09-18T06:50:48;100378.10;;;19.83;71.92
77572;BME280;67214;47.454;18.966;2023-09-18T06:53:15;100376.34;;;19.94;71.03
77572;BME280;67214;47.454;18.966;2023-09-18T06:55:43;100381.84;;;20.01;71.65
77572;BME280;67214;47.454;18.966;2023-09-18T06:58:10;100369.24;;;19.98;71.44
77572;BME280;67214;47.454;18.966;2023-09-18T07:00:37;100369.58;;;19.99;71.12
77572;BME280;67214;47.454;18.966;2023-09-18T07:03:05;100378.92;;;20.11;70.75
77572;BME280;67214;47.454;18.966;2023-09-18T07:05:33;100371.45;;;20.21;70.65
77572;BME280;67214;47.454;18.966;2023-09-18T07:08:00;100374.68;;;20.16;70.38
77572;BME280;67214;47.454;18.966;2023-09-18T07:10:28;100364.68;;;20.29;70.73
77572;BME280;67214;47.454;18.966;2023-09-18T07:12:55;100371.89;;;20.32;70.43
77572;BME280;67214;47.454;18.966;2023-09-18T07:15:22;100369.46;;;20.42;69.70
77572;BME280;67214;47.454;18.966;2023-09-18T07:17:50;100374.80;;;20.64;68.19
77572;BME280;67214;47.454;18.966;2023-09-18T07:20:17;100374.17;;;20.77;68.10
77572;BME280;67214;47.454;18.966;2023-09-18T07:22:48;100377.71;;;20.77;68.98
77572;BME280;67214;47.454;18.966;2023-09-18T07:25:16;100376.16;;;20.79;68.42
77572;BME280;67214;47.454;18.966;2023-09-18T07:27:44;100371.81;;;20.93;68.20
77572;BME280;67214;47.454;18.966;2023-09-18T07:30:13;100371.11;;;21.13;67.16
77572;BME280;67214;47.454;18.966;2023-09-18T07:32:42;100365.16;;;21.18;66.32
77572;BME280;67214;47.454;18.966;2023-09-18T07:35:10;100372.97;;;21.13;67.45
77572;BME280;67214;47.454;18.966;2023-09-18T07:37:39;100368.49;;;21.20;67.34
77572;BME280;67214;47.454;18.966;2023-09-18T07:40:07;100376.59;;;21.35;65.81
77572;BME280;67214;47.454;18.966;2023-09-18T07:42:35;100367.55;;;21.42;66.01
77572;BME280;67214;47.454;18.966;2023-09-18T07:45:02;100372.69;;;21.62;66.38
77572;BME280;67214;47.454;18.966;2023-09-18T07:47:30;100366.33;;;21.80;65.17
77572;BME280;67214;47.454;18.966;2023-09-18T07:49:57;100362.73;;;21.99;64.09
77572;BME280;67214;47.454;18.966;2023-09-18T07:52:25;100368.70;;;21.94;64.46
77572;BME280;67214;47.454;18.966;2023-09-18T07:54:52;100364.03;;;21.92;64.50
77572;BME280;67214;47.454;18.966;2023-09-18T07:57:20;100363.00;;;22.04;64.02
77572;BME280;67214;47.454;18.966;2023-09-18T07:59:49;100367.81;;;22.19;63.77
77572;BME280;67214;47.454;18.966;2023-09-18T08:02:17;100363.30;;;22.26;63.65
77572;BME280;67214;47.454;18.966;2023-09-18T08:04:45;100358.61;;;22.45;62.49
77572;BME280;67214;47.454;18.966;2023-09-18T08:07:13;100345.79;;;22.43;63.55
77572;BME280;67214;47.454;18.966;2023-09-18T08:09:40;100353.83;;;22.47;63.74
77572;BME280;67214;47.454;18.966;2023-09-18T08:12:09;100349.48;;;22.63;63.28
77572;BME280;67214;47.454;18.966;2023-09-18T08:14:36;100338.77;;;22.70;63.05
77572;BME280;67214;47.454;18.966;2023-09-18T08:17:04;100340.18;;;22.83;62.97
77572;BME280;67214;47.454;18.966;2023-09-18T08:19:33;100328.36;;;22.91;62.02
77572;BME280;67214;47.454;18.966;2023-09-18T08:22:02;100327.26;;;22.96;62.22
77572;BME280;67214;47.454;18.966;2023-09-18T08:24:30;100323.98;;;23.07;61.57
77572;BME280;67214;47.454;18.966;2023-09-18T08:26:58;100326.05;;;23.22;61.75
77572;BME280;67214;47.454;18.966;2023-09-18T08:29:25;100324.68;;;23.39;61.29
77572;BME280;67214;47.454;18.966;2023-09-18T08:31:52;100317.59;;;23.55;59.66
77572;BME280;67214;47.454;18.966;2023-09-18T08:34:20;100316.84;;;23.51;60.36
77572;BME280;67214;47.454;18.966;2023-09-18T08:36:47;100316.94;;;23.60;60.86
77572;BME280;67214;47.454;18.966;2023-09-18T08:39:15;100318.01;;;23.59;59.76
77572;BME280;67214;47.454;18.966;2023-09-18T08:41:43;100313.57;;;23.75;60.10
77572;BME280;67214;47.454;18.966;2023-09-18T08:44:12;100307.05;;;24.00;59.78
77572;BME280;67214;47.454;18.966;2023-09-18T08:46:41;100308.70;;;24.01;59.17
77572;BME280;67214;47.454;18.966;2023-09-18T08:49:11;100319.06;;;24.21;59.32
77572;BME280;67214;47.454;18.966;2023-09-18T08:51:38;100311.05;;;24.30;57.74
77572;BME280;67214;47.454;18.966;2023-09-18T08:54:06;100318.44;;;24.26;58.46
77572;BME280;67214;47.454;18.966;2023-09-18T08:56:34;100309.67;;;24.50;58.09
77572;BME280;67214;47.454;18.966;2023-09-18T08:59:02;100319.67;;;24.63;57.33
77572;BME280;67214;47.454;18.966;2023-09-18T09:01:29;100316.88;;;24.60;56.51
77572;BME280;67214;47.454;18.966;2023-09-18T09:03:57;100314.55;;;24.77;57.28
77572;BME280;67214;47.454;18.966;2023-09-18T09:06:26;100319.36;;;24.88;57.37
77572;BME280;67214;47.454;18.966;2023-09-18T09:08:53;100314.70;;;25.08;56.20
77572;BME280;67214;47.454;18.966;2023-09-18T09:11:21;100319.23;;;25.27;56.07
77572;BME280;67214;47.454;18.966;2023-09-18T09:16:39;100319.81;;;25.42;54.82
77572;BME280;67214;47.454;18.966;2023-09-18T09:19:06;100322.29;;;25.44;55.85
77572;BME280;67214;47.454;18.966;2023-09-18T09:21:41;100322.41;;;25.47;54.92
77572;BME280;67214;47.454;18.966;2023-09-18T09:24:11;100319.67;;;25.53;55.41
77572;BME280;67214;47.454;18.966;2023-09-18T09:26:41;100311.78;;;25.67;53.81
77572;BME280;67214;47.454;18.966;2023-09-18T09:29:16;100288.76;;;25.70;54.11
77572;BME280;67214;47.454;18.966;2023-09-18T09:31:47;100294.40;;;25.68;54.27
77572;BME280;67214;47.454;18.966;2023-09-18T09:34:24;100318.05;;;25.83;54.20
77572;BME280;67214;47.454;18.966;2023-09-18T09:36:57;100303.75;;;25.95;53.63
77572;BME280;67214;47.454;18.966;2023-09-18T09:39:26;100306.25;;;26.12;54.25
77572;BME280;67214;47.454;18.966;2023-09-18T09:41:54;100314.16;;;26.20;52.81
77572;BME280;67214;47.454;18.966;2023-09-18T09:44:21;100293.59;;;26.40;53.25
77572;BME280;67214;47.454;18.966;2023-09-18T09:46:49;100308.28;;;26.48;52.50
77572;BME280;67214;47.454;18.966;2023-09-18T09:49:18;100303.70;;;26.57;51.98
77572;BME280;67214;47.454;18.966;2023-09-18T09:51:49;100294.56;;;26.79;51.68
77572;BME280;67214;47.454;18.966;2023-09-18T09:54:32;100281.89;;;26.91;50.10
77572;BME280;67214;47.454;18.966;2023-09-18T09:57:05;100286.00;;;26.66;51.45
77572;BME280;67214;47.454;18.966;2023-09-18T09:59:32;100275.84;;;27.07;50.25
77572;BME280;67214;47.454;18.966;2023-09-18T10:02:02;100265.47;;;27.16;50.88
77572;BME280;67214;47.454;18.966;2023-09-18T10:04:31;100268.99;;;27.53;49.19
77572;BME280;67214;47.454;18.966;2023-09-18T10:07:05;100262.07;;;27.59;49.47
77572;BME280;67214;47.454;18.966;2023-09-18T10:09:30;100263.44;;;27.80;48.87
77572;BME280;67214;47.454;18.966;2023-09-18T10:11:59;100253.68;;;27.82;48.92
77572;BME280;67214;47.454;18.966;2023-09-18T10:14:32;100255.33;;;28.03;49.19
77572;BME280;67214;47.454;18.966;2023-09-18T10:17:15;100257.22;;;28.24;47.94
77572;BME280;67214;47.454;18.966;2023-09-18T10:19:45;100249.80;;;28.22;48.02
77572;BME280;67214;47.454;18.966;2023-09-18T10:22:16;100244.52;;;28.41;47.00
77572;BME280;67214;47.454;18.966;2023-09-18T10:24:45;100239.36;;;28.65;46.96
77572;BME280;67214;47.454;18.966;2023-09-18T10:27:13;100242.56;;;28.50;47.15
77572;BME280;67214;47.454;18.966;2023-09-18T10:29:42;100226.90;;;28.46;46.46
77572;BME280;67214;47.454;18.966;2023-09-18T10:32:11;100209.91;;;28.67;46.78
77572;BME280;67214;47.454;18.966;2023-09-18T10:34:41;100205.52;;;28.89;46.24
77572;BME280;67214;47.454;18.966;2023-09-18T10:37:09;100211.16;;;28.99;45.92
77572;BME280;67214;47.454;18.966;2023-09-18T10:39:42;100214.39;;;29.10;45.25
77572;BME280;67214;47.454;18.966;2023-09-18T10:42:11;100206.41;;;29.21;45.76
77572;BME280;67214;47.454;18.966;2023-09-18T10:44:40;100206.64;;;29.05;46.68
77572;BME280;67214;47.454;18.966;2023-09-18T10:47:10;100208.99;;;29.13;45.12
77572;BME280;67214;47.454;18.966;2023-09-18T10:49:38;100203.61;;;29.30;45.01
77572;BME280;67214;47.454;18.966;2023-09-18T10:52:10;100188.72;;;29.37;44.48
77572;BME280;67214;47.454;18.966;2023-09-18T10:54:37;100191.09;;;29.48;44.91
77572;BME280;67214;47.454;18.966;2023-09-18T10:57:06;100203.09;;;29.47;44.68
77572;BME280;67214;47.454;18.966;2023-09-18T10:59:34;100203.63;;;29.18;44.59
77572;BME280;67214;47.454;18.966;2023-09-18T11:02:04;100203.78;;;29.40;44.14
77572;BME280;67214;47.454;18.966;2023-09-18T11:04:34;100191.00;;;29.74;43.15
77572;BME280;67214;47.454;18.966;2023-09-18T11:07:03;100202.25;;;29.30;43.92
77572;BME280;67214;47.454;18.966;2023-09-18T11:09:40;100197.48;;;29.25;44.23
77572;BME280;67214;47.454;18.966;2023-09-18T11:12:03;100194.88;;;29.04;44.96
77572;BME280;67214;47.454;18.966;2023-09-18T11:14:57;100184.52;;;29.32;44.08
77572;BME280;67214;47.454;18.966;2023-09-18T11:17:38;100172.91;;;29.56;44.13
77572;BME280;67214;47.454;18.966;2023-09-18T11:23:33;100160.27;;;30.36;42.80
77572;BME280;67214;47.454;18.966;2023-09-18T11:28:05;100168.42;;;30.14;42.07
77572;BME280;67214;47.454;18.966;2023-09-18T11:30:35;100157.58;;;30.22;41.15
77572;BME280;67214;47.454;18.966;2023-09-18T11:33:05;100151.75;;;30.35;42.14
77572;BME280;67214;47.454;18.966;2023-09-18T11:35:33;100160.88;;;30.60;41.58
77572;BME280;67214;47.454;18.966;2023-09-18T11:38:05;100155.75;;;30.90;40.88
77572;BME280;67214;47.454;18.966;2023-09-18T11:40:35;100148.72;;;30.72;39.45
77572;BME280;67214;47.454;18.966;2023-09-18T11:43:26;100156.61;;;31.15;40.00
77572;BME280;67214;47.454;18.966;2023-09-18T11:45:57;100147.20;;;31.32;39.80
77572;BME280;67214;47.454;18.966;2023-09-18T11:48:27;100138.17;;;30.86;40.22
77572;BME280;67214;47.454;18.966;2023-09-18T11:50:59;100140.27;;;30.35;40.73
77572;BME280;67214;47.454;18.966;2023-09-18T11:53:29;100145.70;;;29.94;41.17
77572;BME280;67214;47.454;18.966;2023-09-18T11:55:59;100135.38;;;29.85;40.87
77572;BME280;67214;47.454;18.966;2023-09-18T11:58:27;100129.85;;;29.46;42.09
77572;BME280;67214;47.454;18.966;2023-09-18T12:00:54;100125.03;;;29.37;42.30
77572;BME280;67214;47.454;18.966;2023-09-18T12:03:23;100124.53;;;29.26;43.47
77572;BME280;67214;47.454;18.966;2023-09-18T12:06:02;100117.99;;;29.41;42.98
77572;BME280;67214;47.454;18.966;2023-09-18T12:08:32;100114.14;;;29.73;41.67
77572;BME280;67214;47.454;18.966;2023-09-18T12:10:59;100104.73;;;30.40;40.56
77572;BME280;67214;47.454;18.966;2023-09-18T12:13:27;100104.00;;;30.26;41.15
77572;BME280;67214;47.454;18.966;2023-09-18T12:16:00;100105.06;;;30.63;40.04
77572;BME280;67214;47.454;18.966;2023-09-18T12:18:28;100110.63;;;30.71;39.80
77572;BME280;67214;47.454;18.966;2023-09-18T12:20:56;100115.25;;;30.68;40.27
77572;BME280;67214;47.454;18.966;2023-09-18T12:23:25;100111.16;;;30.08;41.05
77572;BME280;67214;47.454;18.966;2023-09-18T12:25:59;100104.73;;;30.19;41.57
77572;BME280;67214;47.454;18.966;2023-09-18T12:28:27;100111.41;;;29.56;41.05
77572;BME280;67214;47.454;18.966;2023-09-18T12:30:57;100106.80;;;29.59;41.88
77572;BME280;67214;47.454;18.966;2023-09-18T12:33:26;100104.48;;;29.20;42.10
77572;BME280;67214;47.454;18.966;2023-09-18T12:35:53;100098.65;;;29.14;42.74
77572;BME280;67214;47.454;18.966;2023-09-18T12:38:21;100092.63;;;29.15;43.06
77572;BME280;67214;47.454;18.966;2023-09-18T12:40:50;100094.01;;;29.29;42.76
77572;BME280;67214;47.454;18.966;2023-09-18T12:43:18;100080.93;;;29.02;42.93
77572;BME280;67214;47.454;18.966;2023-09-18T12:45:46;100081.08;;;29.27;42.64
77572;BME280;67214;47.454;18.966;2023-09-18T12:48:14;100068.20;;;29.39;42.38
77572;BME280;67214;47.454;18.966;2023-09-18T12:50:42;100080.27;;;29.57;42.31
77572;BME280;67214;47.454;18.966;2023-09-18T12:53:13;100066.59;;;29.40;42.39
77572;BME280;67214;47.454;18.966;2023-09-18T12:55:42;100067.25;;;29.31;42.55
77572;BME280;67214;47.454;18.966;2023-09-18T12:58:13;100046.78;;;29.02;42.49